sensor_id;sensor_type;location;lat;lon;timestamp;temperature;humidity
49465;DHT22;35358;49.342;8.802;2022-08-16T00:00:43;17.10;99.90
49465;DHT22;35358;49.342;8.802;2022-08-16T00:03:09;17.10;99.90
49465;DHT22;35358;49.342;8.802;2022-08-16T00:05:35;17.10;99.90
49465;DHT22;35358;49.342;8.802;2022-08-16T00:08:00;17.20;99.90
49465;DHT22;35358;49.342;8.802;2022-08-16T00:10:27;17.20;99.90
49465;DHT22;35358;49.342;8.802;2022-08-16T00:12:57;17.30;99.90
49465;DHT22;35358;49.342;8.802;2022-08-16T00:15:43;17.40;99.90
49465;DHT22;35358;49.342;8.802;2022-08-16T00:18:09;17.20;99.90
49465;DHT22;35358;49.342;8.802;2022-08-16T00:20:35;17.30;99.90
49465;DHT22;35358;49.342;8.802;2022-08-16T00:23:02;17.20;99.90
49465;DHT22;35358;49.342;8.802;2022-08-16T00:25:27;17.20;99.90
49465;DHT22;35358;49.342;8.802;2022-08-16T00:27:53;17.10;99.90
49465;DHT22;35358;49.342;8.802;2022-08-16T00:30:19;17.10;99.90
49465;DHT22;35358;49.342;8.802;2022-08-16T00:32:46;17.00;99.90
49465;DHT22;35358;49.342;8.802;2022-08-16T00:35:14;17.00;99.90
49465;DHT22;35358;49.342;8.802;2022-08-16T00:37:39;17.00;99.90
49465;DHT22;35358;49.342;8.802;2022-08-16T00:40:05;17.10;99.90
49465;DHT22;35358;49.342;8.802;2022-08-16T00:42:32;17.10;99.90
49465;DHT22;35358;49.342;8.802;2022-08-16T00:45:08;17.10;99.90
49465;DHT22;35358;49.342;8.802;2022-08-16T00:47:40;17.10;99.90
49465;DHT22;35358;49.342;8.802;2022-08-16T00:50:09;17.10;99.90
49465;DHT22;35358;49.342;8.802;2022-08-16T00:52:35;17.00;99.90
49465;DHT22;35358;49.342;8.802;2022-08-16T00:55:02;17.00;99.90
49465;DHT22;35358;49.342;8.802;2022-08-16T00:57:32;16.90;99.90
49465;DHT22;35358;49.342;8.802;2022-08-16T00:59:58;16.90;99.90
49465;DHT22;35358;49.342;8.802;2022-08-16T01:02:25;16.90;99.90
49465;DHT22;35358;49.342;8.802;2022-08-16T01:04:52;16.80;99.90
49465;DHT22;35358;49.342;8.802;2022-08-16T01:07:18;16.60;99.90
49465;DHT22;35358;49.342;8.802;2022-08-16T01:09:45;16.60;99.90
49465;DHT22;35358;49.342;8.802;2022-08-16T01:12:11;16.70;99.90
49465;DHT22;35358;49.342;8.802;2022-08-16T01:14:42;16.80;99.90
49465;DHT22;35358;49.342;8.802;2022-08-16T01:17:10;16.80;99.90
49465;DHT22;35358;49.342;8.802;2022-08-16T01:19:39;16.80;99.90
49465;DHT22;35358;49.342;8.802;2022-08-16T01:24:38;16.70;99.90
49465;DHT22;35358;49.342;8.802;2022-08-16T01:27:06;16.70;99.90
49465;DHT22;35358;49.342;8.802;2022-08-16T01:29:37;16.40;99.90
49465;DHT22;35358;49.342;8.802;2022-08-16T01:32:04;16.30;99.90
49465;DHT22;35358;49.342;8.802;2022-08-16T01:34:31;16.30;99.90
49465;DHT22;35358;49.342;8.802;2022-08-16T01:37:04;16.50;99.90
49465;DHT22;35358;49.342;8.802;2022-08-16T01:39:31;16.60;99.90
49465;DHT22;35358;49.342;8.802;2022-08-16T01:41:57;16.40;99.90
49465;DHT22;35358;49.342;8.802;2022-08-16T01:44:22;16.30;99.90
49465;DHT22;35358;49.342;8.802;2022-08-16T01:46:48;16.10;99.90
49465;DHT22;35358;49.342;8.802;2022-08-16T01:49:16;16.00;99.90
49465;DHT22;35358;49.342;8.802;2022-08-16T01:51:46;16.00;99.90
49465;DHT22;35358;49.342;8.802;2022-08-16T01:54:14;16.00;99.90
49465;DHT22;35358;49.342;8.802;2022-08-16T01:56:40;16.00;99.90
49465;DHT22;35358;49.342;8.802;2022-08-16T01:59:06;16.10;99.90
49465;DHT22;35358;49.342;8.802;2022-08-16T02:01:32;16.10;99.90
49465;DHT22;35358;49.342;8.802;2022-08-16T02:04:00;16.20;99.90
49465;DHT22;35358;49.342;8.802;2022-08-16T02:06:26;16.30;99.90
49465;DHT22;35358;49.342;8.802;2022-08-16T02:08:53;16.20;99.90
49465;DHT22;35358;49.342;8.802;2022-08-16T02:11:19;16.20;99.90
49465;DHT22;35358;49.342;8.802;2022-08-16T02:13:45;16.30;99.90
49465;DHT22;35358;49.342;8.802;2022-08-16T02:16:11;16.30;99.90
49465;DHT22;35358;49.342;8.802;2022-08-16T02:18:37;16.10;99.90
49465;DHT22;35358;49.342;8.802;2022-08-16T02:21:05;16.10;99.90
49465;DHT22;35358;49.342;8.802;2022-08-16T02:23:31;16.00;99.90
49465;DHT22;35358;49.342;8.802;2022-08-16T02:25:57;16.10;99.90
49465;DHT22;35358;49.342;8.802;2022-08-16T02:28:23;16.10;99.90
49465;DHT22;35358;49.342;8.802;2022-08-16T02:30:52;16.00;99.90
49465;DHT22;35358;49.342;8.802;2022-08-16T02:33:22;15.90;99.90
49465;DHT22;35358;49.342;8.802;2022-08-16T02:35:48;15.80;99.90
49465;DHT22;35358;49.342;8.802;2022-08-16T02:38:13;15.80;99.90
49465;DHT22;35358;49.342;8.802;2022-08-16T02:40:39;15.90;99.90
49465;DHT22;35358;49.342;8.802;2022-08-16T02:43:04;15.90;99.90
49465;DHT22;35358;49.342;8.802;2022-08-16T02:45:30;16.10;99.90
49465;DHT22;35358;49.342;8.802;2022-08-16T02:47:56;16.20;99.90
49465;DHT22;35358;49.342;8.802;2022-08-16T02:50:21;16.10;99.90
49465;DHT22;35358;49.342;8.802;2022-08-16T02:52:49;16.00;99.90
49465;DHT22;35358;49.342;8.802;2022-08-16T02:55:15;16.00;99.90
49465;DHT22;35358;49.342;8.802;2022-08-16T02:57:43;16.00;99.90
49465;DHT22;35358;49.342;8.802;2022-08-16T03:00:09;15.90;99.90
49465;DHT22;35358;49.342;8.802;2022-08-16T03:02:35;15.80;99.90
49465;DHT22;35358;49.342;8.802;2022-08-16T03:05:02;15.80;99.90
49465;DHT22;35358;49.342;8.802;2022-08-16T03:07:28;15.70;99.90
49465;DHT22;35358;49.342;8.802;2022-08-16T03:09:56;15.80;99.90
49465;DHT22;35358;49.342;8.802;2022-08-16T03:12:22;15.80;99.90
49465;DHT22;35358;49.342;8.802;2022-08-16T03:14:47;15.70;99.90
49465;DHT22;35358;49.342;8.802;2022-08-16T03:17:16;15.60;99.90
49465;DHT22;35358;49.342;8.802;2022-08-16T03:19:42;15.60;99.90
49465;DHT22;35358;49.342;8.802;2022-08-16T03:22:07;15.60;99.90
49465;DHT22;35358;49.342;8.802;2022-08-16T03:24:33;15.70;99.90
49465;DHT22;35358;49.342;8.802;2022-08-16T03:26:59;15.90;99.90
49465;DHT22;35358;49.342;8.802;2022-08-16T03:29:29;15.90;99.90
49465;DHT22;35358;49.342;8.802;2022-08-16T03:31:58;15.90;99.90
49465;DHT22;35358;49.342;8.802;2022-08-16T03:34:24;15.80;99.90
49465;DHT22;35358;49.342;8.802;2022-08-16T03:36:49;15.80;99.90
49465;DHT22;35358;49.342;8.802;2022-08-16T03:39:15;15.70;99.90
49465;DHT22;35358;49.342;8.802;2022-08-16T03:41:43;15.70;99.90
49465;DHT22;35358;49.342;8.802;2022-08-16T03:44:08;15.70;99.90
49465;DHT22;35358;49.342;8.802;2022-08-16T03:46:36;15.50;99.90
49465;DHT22;35358;49.342;8.802;2022-08-16T03:49:02;15.50;99.90
49465;DHT22;35358;49.342;8.802;2022-08-16T03:51:31;15.50;99.90
49465;DHT22;35358;49.342;8.802;2022-08-16T03:54:01;15.50;99.90
49465;DHT22;35358;49.342;8.802;2022-08-16T03:56:26;15.60;99.90
49465;DHT22;35358;49.342;8.802;2022-08-16T03:58:52;15.70;99.90
49465;DHT22;35358;49.342;8.802;2022-08-16T04:01:22;15.70;99.90
49465;DHT22;35358;49.342;8.802;2022-08-16T04:03:50;15.70;99.90
49465;DHT22;35358;49.342;8.802;2022-08-16T04:06:16;15.60;99.90
49465;DHT22;35358;49.342;8.802;2022-08-16T04:08:41;15.60;99.90
49465;DHT22;35358;49.342;8.802;2022-08-16T04:11:07;15.70;99.90
49465;DHT22;35358;49.342;8.802;2022-08-16T04:13:32;15.80;99.90
49465;DHT22;35358;49.342;8.802;2022-08-16T04:15:58;15.80;99.90
49465;DHT22;35358;49.342;8.802;2022-08-16T04:18:25;15.80;99.90
49465;DHT22;35358;49.342;8.802;2022-08-16T04:20:53;15.90;99.90
49465;DHT22;35358;49.342;8.802;2022-08-16T04:23:21;16.10;99.90
49465;DHT22;35358;49.342;8.802;2022-08-16T04:25:48;15.90;99.90
49465;DHT22;35358;49.342;8.802;2022-08-16T04:28:16;15.80;99.90
49465;DHT22;35358;49.342;8.802;2022-08-16T04:30:44;15.80;99.90
49465;DHT22;35358;49.342;8.802;2022-08-16T04:33:09;15.90;99.90
49465;DHT22;35358;49.342;8.802;2022-08-16T04:35:37;15.90;99.90
49465;DHT22;35358;49.342;8.802;2022-08-16T04:38:03;16.00;99.90
49465;DHT22;35358;49.342;8.802;2022-08-16T04:40:29;16.10;99.90
49465;DHT22;35358;49.342;8.802;2022-08-16T04:42:55;16.20;99.90
49465;DHT22;35358;49.342;8.802;2022-08-16T04:45:20;16.20;99.90
49465;DHT22;35358;49.342;8.802;2022-08-16T04:47:46;16.20;99.90
49465;DHT22;35358;49.342;8.802;2022-08-16T04:50:13;16.40;99.90
49465;DHT22;35358;49.342;8.802;2022-08-16T04:52:39;16.40;99.90
49465;DHT22;35358;49.342;8.802;2022-08-16T04:55:09;16.40;99.90
49465;DHT22;35358;49.342;8.802;2022-08-16T04:57:35;16.40;99.90
49465;DHT22;35358;49.342;8.802;2022-08-16T05:00:00;16.40;99.90
49465;DHT22;35358;49.342;8.802;2022-08-16T05:02:26;16.40;99.90
49465;DHT22;35358;49.342;8.802;2022-08-16T05:04:52;16.50;99.90
49465;DHT22;35358;49.342;8.802;2022-08-16T05:07:17;16.50;99.90
49465;DHT22;35358;49.342;8.802;2022-08-16T05:09:45;16.60;99.90
49465;DHT22;35358;49.342;8.802;2022-08-16T05:12:15;16.70;99.90
49465;DHT22;35358;49.342;8.802;2022-08-16T05:14:40;16.70;99.90
49465;DHT22;35358;49.342;8.802;2022-08-16T05:17:08;16.80;99.90
49465;DHT22;35358;49.342;8.802;2022-08-16T05:19:33;16.80;99.90
49465;DHT22;35358;49.342;8.802;2022-08-16T05:21:59;16.80;99.90
49465;DHT22;35358;49.342;8.802;2022-08-16T05:24:24;16.80;99.90
49465;DHT22;35358;49.342;8.802;2022-08-16T05:26:52;16.80;99.90
49465;DHT22;35358;49.342;8.802;2022-08-16T05:29:20;16.80;99.90
49465;DHT22;35358;49.342;8.802;2022-08-16T05:31:45;16.90;99.90
49465;DHT22;35358;49.342;8.802;2022-08-16T05:34:11;16.90;99.90
49465;DHT22;35358;49.342;8.802;2022-08-16T05:36:37;16.90;99.90
49465;DHT22;35358;49.342;8.802;2022-08-16T05:39:06;17.10;99.90
49465;DHT22;35358;49.342;8.802;2022-08-16T05:41:32;17.00;99.90
49465;DHT22;35358;49.342;8.802;2022-08-16T05:43:57;17.10;99.90
49465;DHT22;35358;49.342;8.802;2022-08-16T05:46:24;17.30;99.90
49465;DHT22;35358;49.342;8.802;2022-08-16T05:48:55;17.20;99.90
49465;DHT22;35358;49.342;8.802;2022-08-16T05:51:20;17.30;99.90
49465;DHT22;35358;49.342;8.802;2022-08-16T05:53:46;17.30;99.90
49465;DHT22;35358;49.342;8.802;2022-08-16T05:56:11;17.30;99.90
49465;DHT22;35358;49.342;8.802;2022-08-16T05:58:39;17.30;99.90
49465;DHT22;35358;49.342;8.802;2022-08-16T06:01:05;17.40;99.90
49465;DHT22;35358;49.342;8.802;2022-08-16T06:03:30;17.30;99.90
49465;DHT22;35358;49.342;8.802;2022-08-16T06:05:57;17.40;99.90
49465;DHT22;35358;49.342;8.802;2022-08-16T06:08:24;17.40;99.90
49465;DHT22;35358;49.342;8.802;2022-08-16T06:10:50;17.50;99.90
49465;DHT22;35358;49.342;8.802;2022-08-16T06:13:15;17.60;99.90
49465;DHT22;35358;49.342;8.802;2022-08-16T06:15:41;17.60;99.90
49465;DHT22;35358;49.342;8.802;2022-08-16T06:18:09;17.80;99.90
49465;DHT22;35358;49.342;8.802;2022-08-16T06:20:35;17.80;99.90
49465;DHT22;35358;49.342;8.802;2022-08-16T06:23:03;17.90;99.90
49465;DHT22;35358;49.342;8.802;2022-08-16T06:25:28;17.80;99.90
49465;DHT22;35358;49.342;8.802;2022-08-16T06:27:54;17.80;99.90
49465;DHT22;35358;49.342;8.802;2022-08-16T06:30:20;17.90;99.90
49465;DHT22;35358;49.342;8.802;2022-08-16T06:32:45;18.00;99.90
49465;DHT22;35358;49.342;8.802;2022-08-16T06:35:11;18.00;99.90
49465;DHT22;35358;49.342;8.802;2022-08-16T06:37:37;17.90;99.90
49465;DHT22;35358;49.342;8.802;2022-08-16T06:40:09;17.80;99.90
49465;DHT22;35358;49.342;8.802;2022-08-16T06:42:35;17.90;99.90
49465;DHT22;35358;49.342;8.802;2022-08-16T06:45:00;18.10;99.90
49465;DHT22;35358;49.342;8.802;2022-08-16T06:47:28;18.20;99.90
49465;DHT22;35358;49.342;8.802;2022-08-16T06:49:53;18.30;99.90
49465;DHT22;35358;49.342;8.802;2022-08-16T06:52:19;18.40;99.90
49465;DHT22;35358;49.342;8.802;2022-08-16T06:54:44;18.50;99.90
49465;DHT22;35358;49.342;8.802;2022-08-16T06:57:10;18.50;99.90
49465;DHT22;35358;49.342;8.802;2022-08-16T06:59:37;18.60;99.90
49465;DHT22;35358;49.342;8.802;2022-08-16T07:02:03;18.80;99.90
49465;DHT22;35358;49.342;8.802;2022-08-16T07:04:29;18.80;99.90
49465;DHT22;35358;49.342;8.802;2022-08-16T07:06:55;19.00;99.90
49465;DHT22;35358;49.342;8.802;2022-08-16T07:09:20;19.00;99.90
49465;DHT22;35358;49.342;8.802;2022-08-16T07:11:46;19.00;99.90
49465;DHT22;35358;49.342;8.802;2022-08-16T07:14:14;19.00;99.90
49465;DHT22;35358;49.342;8.802;2022-08-16T07:16:39;18.90;99.90
49465;DHT22;35358;49.342;8.802;2022-08-16T07:19:08;19.00;99.90
49465;DHT22;35358;49.342;8.802;2022-08-16T07:21:34;19.20;99.90
49465;DHT22;35358;49.342;8.802;2022-08-16T07:24:01;19.40;99.90
49465;DHT22;35358;49.342;8.802;2022-08-16T07:26:29;19.30;99.90
49465;DHT22;35358;49.342;8.802;2022-08-16T07:28:55;19.30;99.90
49465;DHT22;35358;49.342;8.802;2022-08-16T07:31:20;19.40;99.90
49465;DHT22;35358;49.342;8.802;2022-08-16T07:33:46;19.40;99.90
49465;DHT22;35358;49.342;8.802;2022-08-16T07:36:12;19.60;99.90
49465;DHT22;35358;49.342;8.802;2022-08-16T07:38:41;19.70;99.90
49465;DHT22;35358;49.342;8.802;2022-08-16T07:41:06;19.70;99.90
49465;DHT22;35358;49.342;8.802;2022-08-16T07:43:32;19.70;99.90
49465;DHT22;35358;49.342;8.802;2022-08-16T07:45:58;19.70;99.90
49465;DHT22;35358;49.342;8.802;2022-08-16T07:48:24;19.70;99.90
49465;DHT22;35358;49.342;8.802;2022-08-16T07:50:50;19.80;99.90
49465;DHT22;35358;49.342;8.802;2022-08-16T07:53:18;19.80;99.90
49465;DHT22;35358;49.342;8.802;2022-08-16T07:55:45;20.00;99.90
49465;DHT22;35358;49.342;8.802;2022-08-16T07:58:11;20.20;99.90
49465;DHT22;35358;49.342;8.802;2022-08-16T08:00:38;20.30;99.90
49465;DHT22;35358;49.342;8.802;2022-08-16T08:03:06;20.50;99.90
49465;DHT22;35358;49.342;8.802;2022-08-16T08:05:32;20.60;99.90
49465;DHT22;35358;49.342;8.802;2022-08-16T08:07:57;20.70;99.90
49465;DHT22;35358;49.342;8.802;2022-08-16T08:10:23;20.80;99.90
49465;DHT22;35358;49.342;8.802;2022-08-16T08:12:50;20.90;99.90
49465;DHT22;35358;49.342;8.802;2022-08-16T08:15:16;20.90;99.90
49465;DHT22;35358;49.342;8.802;2022-08-16T08:17:42;21.10;99.90
49465;DHT22;35358;49.342;8.802;2022-08-16T08:20:10;21.10;99.90
49465;DHT22;35358;49.342;8.802;2022-08-16T08:22:35;21.20;99.90
49465;DHT22;35358;49.342;8.802;2022-08-16T08:25:01;21.30;99.90
49465;DHT22;35358;49.342;8.802;2022-08-16T08:27:27;21.40;99.90
49465;DHT22;35358;49.342;8.802;2022-08-16T08:29:55;21.50;99.90
49465;DHT22;35358;49.342;8.802;2022-08-16T08:32:24;21.50;99.90
49465;DHT22;35358;49.342;8.802;2022-08-16T08:34:54;21.60;99.90
49465;DHT22;35358;49.342;8.802;2022-08-16T08:37:19;21.70;99.90
49465;DHT22;35358;49.342;8.802;2022-08-16T08:39:47;21.80;99.90
49465;DHT22;35358;49.342;8.802;2022-08-16T08:42:12;21.90;99.90
49465;DHT22;35358;49.342;8.802;2022-08-16T08:44:39;21.90;99.90
49465;DHT22;35358;49.342;8.802;2022-08-16T08:47:05;22.00;99.90
49465;DHT22;35358;49.342;8.802;2022-08-16T08:49:32;22.20;99.90
49465;DHT22;35358;49.342;8.802;2022-08-16T08:52:00;22.40;99.90
49465;DHT22;35358;49.342;8.802;2022-08-16T08:54:28;22.60;99.90
49465;DHT22;35358;49.342;8.802;2022-08-16T08:56:54;22.60;99.90
49465;DHT22;35358;49.342;8.802;2022-08-16T08:59:19;22.80;99.90
49465;DHT22;35358;49.342;8.802;2022-08-16T09:01:48;23.00;99.90
49465;DHT22;35358;49.342;8.802;2022-08-16T09:04:14;22.90;99.90
49465;DHT22;35358;49.342;8.802;2022-08-16T09:06:39;23.00;99.90
49465;DHT22;35358;49.342;8.802;2022-08-16T09:09:06;23.10;99.90
49465;DHT22;35358;49.342;8.802;2022-08-16T09:11:35;23.40;99.90
49465;DHT22;35358;49.342;8.802;2022-08-16T09:14:01;23.40;99.90
49465;DHT22;35358;49.342;8.802;2022-08-16T09:16:30;23.50;99.90
49465;DHT22;35358;49.342;8.802;2022-08-16T09:18:57;23.70;99.90
49465;DHT22;35358;49.342;8.802;2022-08-16T09:21:23;24.10;99.90
49465;DHT22;35358;49.342;8.802;2022-08-16T09:23:48;24.30;99.90
49465;DHT22;35358;49.342;8.802;2022-08-16T09:26:14;24.40;99.90
49465;DHT22;35358;49.342;8.802;2022-08-16T09:28:43;24.50;99.90
49465;DHT22;35358;49.342;8.802;2022-08-16T09:31:11;24.60;99.90
49465;DHT22;35358;49.342;8.802;2022-08-16T09:33:36;24.70;99.90
49465;DHT22;35358;49.342;8.802;2022-08-16T09:36:06;24.50;99.90
49465;DHT22;35358;49.342;8.802;2022-08-16T09:38:33;24.70;99.90
49465;DHT22;35358;49.342;8.802;2022-08-16T09:41:02;24.80;99.90
49465;DHT22;35358;49.342;8.802;2022-08-16T09:43:31;24.60;99.90
49465;DHT22;35358;49.342;8.802;2022-08-16T09:46:03;24.30;99.90
49465;DHT22;35358;49.342;8.802;2022-08-16T09:48:34;24.20;99.90
49465;DHT22;35358;49.342;8.802;2022-08-16T09:51:00;24.30;99.90
49465;DHT22;35358;49.342;8.802;2022-08-16T09:53:28;24.30;99.90
49465;DHT22;35358;49.342;8.802;2022-08-16T09:55:58;24.30;99.90
49465;DHT22;35358;49.342;8.802;2022-08-16T09:58:28;24.60;99.90
49465;DHT22;35358;49.342;8.802;2022-08-16T10:00:56;24.90;99.90
49465;DHT22;35358;49.342;8.802;2022-08-16T10:03:22;25.10;99.90
49465;DHT22;35358;49.342;8.802;2022-08-16T10:05:48;25.20;99.90
49465;DHT22;35358;49.342;8.802;2022-08-16T10:08:14;25.40;99.90
49465;DHT22;35358;49.342;8.802;2022-08-16T10:10:41;25.60;99.90
49465;DHT22;35358;49.342;8.802;2022-08-16T10:13:29;25.80;99.90
49465;DHT22;35358;49.342;8.802;2022-08-16T10:15:55;25.70;99.90
49465;DHT22;35358;49.342;8.802;2022-08-16T10:18:24;26.00;99.90
49465;DHT22;35358;49.342;8.802;2022-08-16T10:20:52;26.20;99.90
49465;DHT22;35358;49.342;8.802;2022-08-16T10:23:17;26.30;99.90
49465;DHT22;35358;49.342;8.802;2022-08-16T10:25:46;26.30;99.90
49465;DHT22;35358;49.342;8.802;2022-08-16T10:28:12;25.90;99.90
49465;DHT22;35358;49.342;8.802;2022-08-16T10:30:40;25.70;99.90
49465;DHT22;35358;49.342;8.802;2022-08-16T10:33:10;25.60;99.90
49465;DHT22;35358;49.342;8.802;2022-08-16T10:35:35;25.30;99.90
49465;DHT22;35358;49.342;8.802;2022-08-16T10:38:01;25.50;99.90
49465;DHT22;35358;49.342;8.802;2022-08-16T10:40:29;26.00;99.90
49465;DHT22;35358;49.342;8.802;2022-08-16T10:42:55;26.20;99.90
49465;DHT22;35358;49.342;8.802;2022-08-16T10:45:21;26.10;99.90
49465;DHT22;35358;49.342;8.802;2022-08-16T10:47:49;26.10;99.90
49465;DHT22;35358;49.342;8.802;2022-08-16T10:50:16;25.90;99.90
49465;DHT22;35358;49.342;8.802;2022-08-16T10:52:42;26.20;99.90
49465;DHT22;35358;49.342;8.802;2022-08-16T10:55:07;25.80;99.90
49465;DHT22;35358;49.342;8.802;2022-08-16T10:57:37;25.60;99.90
49465;DHT22;35358;49.342;8.802;2022-08-16T11:00:06;25.60;99.90
49465;DHT22;35358;49.342;8.802;2022-08-16T11:02:36;25.60;99.90
49465;DHT22;35358;49.342;8.802;2022-08-16T11:05:03;25.80;99.90
49465;DHT22;35358;49.342;8.802;2022-08-16T11:07:29;26.20;99.90
49465;DHT22;35358;49.342;8.802;2022-08-16T11:09:54;26.10;99.90
49465;DHT22;35358;49.342;8.802;2022-08-16T11:12:22;26.30;99.90
49465;DHT22;35358;49.342;8.802;2022-08-16T11:14:48;26.80;99.90
49465;DHT22;35358;49.342;8.802;2022-08-16T11:17:13;27.00;99.90
49465;DHT22;35358;49.342;8.802;2022-08-16T11:19:39;26.90;99.90
49465;DHT22;35358;49.342;8.802;2022-08-16T11:22:06;27.00;99.90
49465;DHT22;35358;49.342;8.802;2022-08-16T11:24:31;27.00;99.90
49465;DHT22;35358;49.342;8.802;2022-08-16T11:26:57;27.00;99.90
49465;DHT22;35358;49.342;8.802;2022-08-16T11:29:22;27.00;99.90
49465;DHT22;35358;49.342;8.802;2022-08-16T11:31:48;27.20;99.90
49465;DHT22;35358;49.342;8.802;2022-08-16T11:34:17;27.20;99.90
49465;DHT22;35358;49.342;8.802;2022-08-16T11:36:47;26.60;99.90
49465;DHT22;35358;49.342;8.802;2022-08-16T11:39:16;26.40;99.90
49465;DHT22;35358;49.342;8.802;2022-08-16T11:41:42;26.90;99.90
49465;DHT22;35358;49.342;8.802;2022-08-16T11:44:08;27.00;99.90
49465;DHT22;35358;49.342;8.802;2022-08-16T11:46:33;26.90;99.90
49465;DHT22;35358;49.342;8.802;2022-08-16T11:49:02;26.90;99.90
49465;DHT22;35358;49.342;8.802;2022-08-16T11:51:28;26.60;99.90
49465;DHT22;35358;49.342;8.802;2022-08-16T11:53:53;26.30;99.90
49465;DHT22;35358;49.342;8.802;2022-08-16T11:56:19;26.60;99.90
49465;DHT22;35358;49.342;8.802;2022-08-16T11:58:45;27.00;99.90
49465;DHT22;35358;49.342;8.802;2022-08-16T12:01:10;27.20;99.90
49465;DHT22;35358;49.342;8.802;2022-08-16T12:03:36;27.10;99.90
49465;DHT22;35358;49.342;8.802;2022-08-16T12:06:04;27.10;99.90
49465;DHT22;35358;49.342;8.802;2022-08-16T12:08:32;27.00;99.90
49465;DHT22;35358;49.342;8.802;2022-08-16T12:10:58;27.00;99.90
49465;DHT22;35358;49.342;8.802;2022-08-16T12:13:24;27.10;99.90
49465;DHT22;35358;49.342;8.802;2022-08-16T12:15:50;27.40;99.90
49465;DHT22;35358;49.342;8.802;2022-08-16T12:18:15;27.80;99.90
49465;DHT22;35358;49.342;8.802;2022-08-16T12:20:42;28.20;99.90
49465;DHT22;35358;49.342;8.802;2022-08-16T12:23:08;28.70;99.90
49465;DHT22;35358;49.342;8.802;2022-08-16T12:25:34;28.70;99.90
49465;DHT22;35358;49.342;8.802;2022-08-16T12:28:00;28.60;99.90
49465;DHT22;35358;49.342;8.802;2022-08-16T12:30:28;28.80;99.90
49465;DHT22;35358;49.342;8.802;2022-08-16T12:32:54;28.70;99.90
49465;DHT22;35358;49.342;8.802;2022-08-16T12:35:20;29.20;99.90
49465;DHT22;35358;49.342;8.802;2022-08-16T12:37:48;29.50;99.90
49465;DHT22;35358;49.342;8.802;2022-08-16T12:40:19;29.50;99.90
49465;DHT22;35358;49.342;8.802;2022-08-16T12:42:46;29.50;99.90
49465;DHT22;35358;49.342;8.802;2022-08-16T12:45:14;28.80;99.90
49465;DHT22;35358;49.342;8.802;2022-08-16T12:47:40;29.10;99.90
49465;DHT22;35358;49.342;8.802;2022-08-16T12:50:24;29.50;99.90
49465;DHT22;35358;49.342;8.802;2022-08-16T12:52:52;29.60;99.90
49465;DHT22;35358;49.342;8.802;2022-08-16T12:55:18;29.50;99.90
49465;DHT22;35358;49.342;8.802;2022-08-16T12:57:46;29.50;99.90
49465;DHT22;35358;49.342;8.802;2022-08-16T13:00:13;29.60;99.90
49465;DHT22;35358;49.342;8.802;2022-08-16T13:02:43;29.80;99.90
49465;DHT22;35358;49.342;8.802;2022-08-16T13:05:12;30.10;99.90
49465;DHT22;35358;49.342;8.802;2022-08-16T13:07:38;30.10;99.90
49465;DHT22;35358;49.342;8.802;2022-08-16T13:10:04;29.80;99.90
49465;DHT22;35358;49.342;8.802;2022-08-16T13:12:35;30.10;99.90
49465;DHT22;35358;49.342;8.802;2022-08-16T13:15:04;29.70;99.90
49465;DHT22;35358;49.342;8.802;2022-08-16T13:17:32;29.50;99.90
49465;DHT22;35358;49.342;8.802;2022-08-16T13:19:57;28.70;99.90
49465;DHT22;35358;49.342;8.802;2022-08-16T13:22:25;28.50;99.90
49465;DHT22;35358;49.342;8.802;2022-08-16T13:24:51;28.90;99.90
49465;DHT22;35358;49.342;8.802;2022-08-16T13:27:17;28.90;99.90
49465;DHT22;35358;49.342;8.802;2022-08-16T13:29:45;28.80;99.90
49465;DHT22;35358;49.342;8.802;2022-08-16T13:32:10;29.30;99.90
49465;DHT22;35358;49.342;8.802;2022-08-16T13:34:38;29.90;99.90
49465;DHT22;35358;49.342;8.802;2022-08-16T13:37:06;30.50;99.90
49465;DHT22;35358;49.342;8.802;2022-08-16T13:39:31;30.70;99.90
49465;DHT22;35358;49.342;8.802;2022-08-16T13:41:58;30.20;99.90
49465;DHT22;35358;49.342;8.802;2022-08-16T13:44:26;29.70;99.90
49465;DHT22;35358;49.342;8.802;2022-08-16T13:46:52;30.00;99.90
49465;DHT22;35358;49.342;8.802;2022-08-16T13:49:21;29.70;99.90
49465;DHT22;35358;49.342;8.802;2022-08-16T13:51:48;29.60;99.90
49465;DHT22;35358;49.342;8.802;2022-08-16T13:54:16;30.10;99.90
49465;DHT22;35358;49.342;8.802;2022-08-16T13:56:44;30.80;99.90
49465;DHT22;35358;49.342;8.802;2022-08-16T13:59:11;31.20;99.90
49465;DHT22;35358;49.342;8.802;2022-08-16T14:01:40;31.50;99.90
49465;DHT22;35358;49.342;8.802;2022-08-16T14:04:06;31.40;99.90
49465;DHT22;35358;49.342;8.802;2022-08-16T14:06:31;31.80;99.90
49465;DHT22;35358;49.342;8.802;2022-08-16T14:08:57;31.50;99.90
49465;DHT22;35358;49.342;8.802;2022-08-16T14:11:22;30.50;99.90
49465;DHT22;35358;49.342;8.802;2022-08-16T14:13:53;30.00;99.90
49465;DHT22;35358;49.342;8.802;2022-08-16T14:16:18;29.40;99.90
49465;DHT22;35358;49.342;8.802;2022-08-16T14:18:46;29.40;99.90
49465;DHT22;35358;49.342;8.802;2022-08-16T14:21:11;30.10;99.90
49465;DHT22;35358;49.342;8.802;2022-08-16T14:23:39;30.90;99.90
49465;DHT22;35358;49.342;8.802;2022-08-16T14:26:07;31.20;99.90
49465;DHT22;35358;49.342;8.802;2022-08-16T14:28:33;31.40;99.90
49465;DHT22;35358;49.342;8.802;2022-08-16T14:31:00;31.80;99.90
49465;DHT22;35358;49.342;8.802;2022-08-16T14:33:30;32.10;99.90
49465;DHT22;35358;49.342;8.802;2022-08-16T14:35:56;31.70;99.90
49465;DHT22;35358;49.342;8.802;2022-08-16T14:38:22;31.60;99.90
49465;DHT22;35358;49.342;8.802;2022-08-16T14:40:48;32.00;99.90
49465;DHT22;35358;49.342;8.802;2022-08-16T14:43:14;32.40;99.90
49465;DHT22;35358;49.342;8.802;2022-08-16T14:45:40;31.70;99.90
49465;DHT22;35358;49.342;8.802;2022-08-16T14:48:06;30.80;99.90
49465;DHT22;35358;49.342;8.802;2022-08-16T14:50:31;30.10;99.90
49465;DHT22;35358;49.342;8.802;2022-08-16T14:53:01;29.80;99.90
49465;DHT22;35358;49.342;8.802;2022-08-16T14:55:27;29.60;99.90
49465;DHT22;35358;49.342;8.802;2022-08-16T14:57:53;29.40;99.90
49465;DHT22;35358;49.342;8.802;2022-08-16T15:00:19;29.00;99.90
49465;DHT22;35358;49.342;8.802;2022-08-16T15:02:48;28.90;99.90
49465;DHT22;35358;49.342;8.802;2022-08-16T15:05:17;28.90;99.90
49465;DHT22;35358;49.342;8.802;2022-08-16T15:07:42;28.90;99.90
49465;DHT22;35358;49.342;8.802;2022-08-16T15:10:10;29.60;99.90
49465;DHT22;35358;49.342;8.802;2022-08-16T15:12:36;29.30;99.90
49465;DHT22;35358;49.342;8.802;2022-08-16T15:15:06;29.30;99.90
49465;DHT22;35358;49.342;8.802;2022-08-16T15:17:34;29.00;99.90
49465;DHT22;35358;49.342;8.802;2022-08-16T15:20:03;29.00;99.90
49465;DHT22;35358;49.342;8.802;2022-08-16T15:22:34;29.70;99.90
49465;DHT22;35358;49.342;8.802;2022-08-16T15:25:01;29.70;99.90
49465;DHT22;35358;49.342;8.802;2022-08-16T15:27:29;29.50;99.90
49465;DHT22;35358;49.342;8.802;2022-08-16T15:29:57;29.00;99.90